sensor_id;sensor_type;location;lat;lon;timestamp;pressure;altitude;pressure_sealevel;temperature;humidity
51687;BME280;37774;52.192;4.584;2023-04-28T00:01:09;101037.97;;;4.82;100.00
51687;BME280;37774;52.192;4.584;2023-04-28T00:03:57;101481.34;;;7.51;100.00
51687;BME280;37774;52.192;4.584;2023-04-28T00:06:43;101296.03;;;6.37;100.00
51687;BME280;37774;52.192;4.584;2023-04-28T00:09:29;101305.72;;;6.51;100.00
51687;BME280;37774;52.192;4.584;2023-04-28T00:12:15;101243.94;;;6.09;100.00
51687;BME280;37774;52.192;4.584;2023-04-28T00:15:00;101475.31;;;7.52;100.00
51687;BME280;37774;52.192;4.584;2023-04-28T00:17:46;101518.53;;;7.60;100.00
51687;BME280;37774;52.192;4.584;2023-04-28T00:20:33;101343.88;;;6.66;100.00
51687;BME280;37774;52.192;4.584;2023-04-28T00:23:18;101537.88;;;7.83;100.00
51687;BME280;37774;52.192;4.584;2023-04-28T00:26:03;101238.50;;;5.95;100.00
51687;BME280;37774;52.192;4.584;2023-04-28T00:28:49;101452.44;;;7.23;100.00
51687;BME280;37774;52.192;4.584;2023-04-28T00:31:34;101380.38;;;6.89;100.00
51687;BME280;37774;52.192;4.584;2023-04-28T00:34:20;101477.91;;;7.53;100.00
51687;BME280;37774;52.192;4.584;2023-04-28T00:37:07;101257.06;;;6.22;100.00
51687;BME280;37774;52.192;4.584;2023-04-28T00:39:55;101457.81;;;7.35;100.00
51687;BME280;37774;52.192;4.584;2023-04-28T00:42:41;101494.47;;;7.65;100.00
51687;BME280;37774;52.192;4.584;2023-04-28T00:45:26;101072.75;;;5.06;100.00
51687;BME280;37774;52.192;4.584;2023-04-28T00:48:12;101316.22;;;6.60;100.00
51687;BME280;37774;52.192;4.584;2023-04-28T00:50:58;101458.50;;;7.23;100.00
51687;BME280;37774;52.192;4.584;2023-04-28T00:53:44;101178.53;;;5.60;100.00
51687;BME280;37774;52.192;4.584;2023-04-28T00:56:30;101441.44;;;7.35;100.00
51687;BME280;37774;52.192;4.584;2023-04-28T00:59:16;101141.13;;;5.34;100.00
51687;BME280;37774;52.192;4.584;2023-04-28T01:02:02;101208.38;;;5.94;100.00
51687;BME280;37774;52.192;4.584;2023-04-28T01:04:49;101495.31;;;7.64;100.00
51687;BME280;37774;52.192;4.584;2023-04-28T01:07:34;101053.81;;;5.04;100.00
51687;BME280;37774;52.192;4.584;2023-04-28T01:10:21;100962.56;;;4.45;100.00
51687;BME280;37774;52.192;4.584;2023-04-28T01:13:06;101473.81;;;7.68;100.00
51687;BME280;37774;52.192;4.584;2023-04-28T01:15:52;101405.09;;;7.25;100.00
51687;BME280;37774;52.192;4.584;2023-04-28T01:18:42;101469.44;;;7.64;100.00
51687;BME280;37774;52.192;4.584;2023-04-28T01:21:30;101466.00;;;7.65;100.00
51687;BME280;37774;52.192;4.584;2023-04-28T01:24:17;101404.19;;;7.23;100.00
51687;BME280;37774;52.192;4.584;2023-04-28T01:27:03;101412.16;;;7.37;100.00
51687;BME280;37774;52.192;4.584;2023-04-28T01:29:49;100966.59;;;4.76;100.00
51687;BME280;37774;52.192;4.584;2023-04-28T01:32:34;101448.88;;;7.71;100.00
51687;BME280;37774;52.192;4.584;2023-04-28T01:35:20;101339.16;;;6.95;100.00
51687;BME280;37774;52.192;4.584;2023-04-28T01:38:05;101213.50;;;6.42;100.00
51687;BME280;37774;52.192;4.584;2023-04-28T01:40:53;101425.47;;;7.64;100.00
51687;BME280;37774;52.192;4.584;2023-04-28T01:43:39;101317.66;;;6.98;100.00
51687;BME280;37774;52.192;4.584;2023-04-28T01:46:24;101438.53;;;7.73;100.00
51687;BME280;37774;52.192;4.584;2023-04-28T01:49:10;101389.75;;;7.38;100.00
51687;BME280;37774;52.192;4.584;2023-04-28T01:51:55;101180.78;;;5.90;100.00
51687;BME280;37774;52.192;4.584;2023-04-28T01:54:41;101301.22;;;6.91;100.00
51687;BME280;37774;52.192;4.584;2023-04-28T01:57:27;101363.03;;;7.37;100.00
51687;BME280;37774;52.192;4.584;2023-04-28T02:00:13;101382.94;;;7.43;100.00
51687;BME280;37774;52.192;4.584;2023-04-28T02:02:59;101129.34;;;5.98;100.00
51687;BME280;37774;52.192;4.584;2023-04-28T02:05:45;101413.53;;;7.73;100.00
51687;BME280;37774;52.192;4.584;2023-04-28T02:08:30;101165.97;;;6.31;100.00
51687;BME280;37774;52.192;4.584;2023-04-28T02:11:15;101256.31;;;6.84;100.00
51687;BME280;37774;52.192;4.584;2023-04-28T02:14:02;101299.75;;;7.09;100.00
51687;BME280;37774;52.192;4.584;2023-04-28T02:16:48;101352.81;;;7.45;100.00
51687;BME280;37774;52.192;4.584;2023-04-28T02:19:33;101204.84;;;6.38;100.00
51687;BME280;37774;52.192;4.584;2023-04-28T02:22:19;101391.88;;;7.67;100.00
51687;BME280;37774;52.192;4.584;2023-04-28T02:25:05;101339.72;;;7.34;100.00
51687;BME280;37774;52.192;4.584;2023-04-28T02:27:50;101374.69;;;7.72;100.00
51687;BME280;37774;52.192;4.584;2023-04-28T02:30:37;101363.50;;;7.71;100.00
51687;BME280;37774;52.192;4.584;2023-04-28T02:33:22;101371.22;;;7.70;100.00
51687;BME280;37774;52.192;4.584;2023-04-28T02:36:09;101266.91;;;7.03;100.00
51687;BME280;37774;52.192;4.584;2023-04-28T02:38:54;101290.50;;;7.26;100.00
51687;BME280;37774;52.192;4.584;2023-04-28T02:41:40;101270.47;;;7.10;100.00
51687;BME280;37774;52.192;4.584;2023-04-28T02:44:25;101360.88;;;7.68;100.00
51687;BME280;37774;52.192;4.584;2023-04-28T02:47:13;101284.28;;;7.12;100.00
51687;BME280;37774;52.192;4.584;2023-04-28T02:50:00;101352.22;;;7.68;100.00
51687;BME280;37774;52.192;4.584;2023-04-28T02:52:45;101309.69;;;7.44;100.00
51687;BME280;37774;52.192;4.584;2023-04-28T02:55:30;101103.72;;;6.07;100.00
51687;BME280;37774;52.192;4.584;2023-04-28T02:58:16;101179.59;;;6.79;100.00
51687;BME280;37774;52.192;4.584;2023-04-28T03:01:02;101253.19;;;7.06;100.00
51687;BME280;37774;52.192;4.584;2023-04-28T03:03:49;101110.97;;;6.33;100.00
51687;BME280;37774;52.192;4.584;2023-04-28T03:06:35;100989.34;;;5.51;100.00
51687;BME280;37774;52.192;4.584;2023-04-28T03:09:20;101028.69;;;5.95;100.00
51687;BME280;37774;52.192;4.584;2023-04-28T03:12:06;101207.50;;;7.05;100.00
51687;BME280;37774;52.192;4.584;2023-04-28T03:14:51;101314.31;;;7.70;100.00
51687;BME280;37774;52.192;4.584;2023-04-28T03:17:37;101152.66;;;6.61;100.00
51687;BME280;37774;52.192;4.584;2023-04-28T03:20:26;101008.72;;;5.83;100.00
51687;BME280;37774;52.192;4.584;2023-04-28T03:23:12;101110.94;;;6.32;100.00
51687;BME280;37774;52.192;4.584;2023-04-28T03:25:57;101229.22;;;7.21;100.00
51687;BME280;37774;52.192;4.584;2023-04-28T03:28:43;101181.59;;;6.98;100.00
51687;BME280;37774;52.192;4.584;2023-04-28T03:31:29;101178.03;;;6.90;100.00
51687;BME280;37774;52.192;4.584;2023-04-28T03:34:14;101194.63;;;7.08;100.00
51687;BME280;37774;52.192;4.584;2023-04-28T03:37:01;100966.34;;;5.65;100.00
51687;BME280;37774;52.192;4.584;2023-04-28T03:39:46;101080.97;;;6.40;100.00
51687;BME280;37774;52.192;4.584;2023-04-28T03:42:32;101216.28;;;7.18;100.00
51687;BME280;37774;52.192;4.584;2023-04-28T03:45:17;101142.53;;;6.77;100.00
51687;BME280;37774;52.192;4.584;2023-04-28T03:48:03;101204.22;;;7.20;100.00
51687;BME280;37774;52.192;4.584;2023-04-28T03:50:49;101213.72;;;7.21;100.00
51687;BME280;37774;52.192;4.584;2023-04-28T03:53:36;101309.84;;;7.55;100.00
51687;BME280;37774;52.192;4.584;2023-04-28T03:56:22;101299.50;;;7.55;100.00
51687;BME280;37774;52.192;4.584;2023-04-28T03:59:08;101228.19;;;7.06;100.00
51687;BME280;37774;52.192;4.584;2023-04-28T04:01:54;101280.25;;;7.34;100.00
51687;BME280;37774;52.192;4.584;2023-04-28T04:04:40;101217.94;;;7.12;100.00
51687;BME280;37774;52.192;4.584;2023-04-28T04:07:25;101281.13;;;7.35;100.00
51687;BME280;37774;52.192;4.584;2023-04-28T04:10:13;101222.25;;;7.12;100.00
51687;BME280;37774;52.192;4.584;2023-04-28T04:12:58;101170.00;;;6.70;100.00
51687;BME280;37774;52.192;4.584;2023-04-28T04:15:44;101243.88;;;7.20;100.00
51687;BME280;37774;52.192;4.584;2023-04-28T04:18:30;101067.78;;;6.20;100.00
51687;BME280;37774;52.192;4.584;2023-04-28T04:21:15;101290.03;;;7.57;100.00
51687;BME280;37774;52.192;4.584;2023-04-28T04:24:01;101305.69;;;7.69;100.00
51687;BME280;37774;52.192;4.584;2023-04-28T04:26:48;101214.56;;;7.20;100.00
51687;BME280;37774;52.192;4.584;2023-04-28T04:29:34;101286.53;;;7.53;100.00
51687;BME280;37774;52.192;4.584;2023-04-28T04:32:23;100827.22;;;4.56;100.00
51687;BME280;37774;52.192;4.584;2023-04-28T04:35:10;100893.38;;;5.11;100.00
51687;BME280;37774;52.192;4.584;2023-04-28T04:37:56;101141.94;;;6.33;100.00
51687;BME280;37774;52.192;4.584;2023-04-28T04:40:41;101295.13;;;7.52;100.00
51687;BME280;37774;52.192;4.584;2023-04-28T04:43:28;101039.91;;;5.97;100.00
51687;BME280;37774;52.192;4.584;2023-04-28T04:46:14;101259.06;;;6.97;100.00
51687;BME280;37774;52.192;4.584;2023-04-28T04:49:00;101066.34;;;5.83;100.00
51687;BME280;37774;52.192;4.584;2023-04-28T04:51:46;101161.84;;;6.39;100.00
51687;BME280;37774;52.192;4.584;2023-04-28T04:54:31;101242.72;;;6.96;100.00
51687;BME280;37774;52.192;4.584;2023-04-28T04:57:17;101251.59;;;7.19;100.00
51687;BME280;37774;52.192;4.584;2023-04-28T05:00:05;101070.00;;;5.99;100.00
51687;BME280;37774;52.192;4.584;2023-04-28T05:02:50;101169.25;;;6.77;100.00
51687;BME280;37774;52.192;4.584;2023-04-28T05:05:36;101229.97;;;7.09;100.00
51687;BME280;37774;52.192;4.584;2023-04-28T05:08:21;101269.94;;;7.36;100.00
51687;BME280;37774;52.192;4.584;2023-04-28T05:11:07;101255.19;;;7.28;100.00
51687;BME280;37774;52.192;4.584;2023-04-28T05:13:52;101223.94;;;7.11;100.00
51687;BME280;37774;52.192;4.584;2023-04-28T05:16:39;101087.63;;;6.25;100.00
51687;BME280;37774;52.192;4.584;2023-04-28T05:19:27;101073.81;;;6.23;100.00
51687;BME280;37774;52.192;4.584;2023-04-28T05:22:12;101155.50;;;6.78;100.00
51687;BME280;37774;52.192;4.584;2023-04-28T05:24:58;101007.25;;;5.99;100.00
51687;BME280;37774;52.192;4.584;2023-04-28T05:27:50;100838.13;;;4.92;100.00
51687;BME280;37774;52.192;4.584;2023-04-28T05:30:35;100988.19;;;5.88;100.00
51687;BME280;37774;52.192;4.584;2023-04-28T05:33:23;100707.38;;;4.17;100.00
51687;BME280;37774;52.192;4.584;2023-04-28T05:36:09;100640.16;;;3.97;100.00
51687;BME280;37774;52.192;4.584;2023-04-28T05:38:54;101161.94;;;7.13;100.00
51687;BME280;37774;52.192;4.584;2023-04-28T05:41:39;101149.91;;;7.16;100.00
51687;BME280;37774;52.192;4.584;2023-04-28T05:44:25;101141.41;;;7.25;100.00
51687;BME280;37774;52.192;4.584;2023-04-28T05:47:12;101128.34;;;7.13;100.00
51687;BME280;37774;52.192;4.584;2023-04-28T05:50:08;100825.97;;;5.41;100.00
51687;BME280;37774;52.192;4.584;2023-04-28T05:52:54;100794.91;;;5.32;100.00
51687;BME280;37774;52.192;4.584;2023-04-28T05:55:40;100913.44;;;5.94;100.00
51687;BME280;37774;52.192;4.584;2023-04-28T05:58:26;100908.56;;;6.14;100.00
51687;BME280;37774;52.192;4.584;2023-04-28T06:01:12;100901.66;;;6.11;100.00
51687;BME280;37774;52.192;4.584;2023-04-28T06:04:06;101081.81;;;7.10;100.00
51687;BME280;37774;52.192;4.584;2023-04-28T06:06:53;100714.69;;;5.07;100.00
51687;BME280;37774;52.192;4.584;2023-04-28T06:09:39;101183.59;;;8.06;100.00
51687;BME280;37774;52.192;4.584;2023-04-28T06:12:24;100699.47;;;5.26;100.00
51687;BME280;37774;52.192;4.584;2023-04-28T06:15:11;100777.25;;;5.65;100.00
51687;BME280;37774;52.192;4.584;2023-04-28T06:17:56;101138.53;;;7.85;100.00
51687;BME280;37774;52.192;4.584;2023-04-28T06:20:45;100695.31;;;5.36;100.00
51687;BME280;37774;52.192;4.584;2023-04-28T06:23:38;101149.16;;;8.19;100.00
51687;BME280;37774;52.192;4.584;2023-04-28T06:26:25;100981.22;;;7.35;100.00
51687;BME280;37774;52.192;4.584;2023-04-28T06:29:11;100779.63;;;6.22;100.00
51687;BME280;37774;52.192;4.584;2023-04-28T06:31:56;100627.44;;;5.32;100.00
51687;BME280;37774;52.192;4.584;2023-04-28T06:34:42;101064.56;;;8.12;100.00
51687;BME280;37774;52.192;4.584;2023-04-28T06:37:27;101051.63;;;8.15;100.00
51687;BME280;37774;52.192;4.584;2023-04-28T06:40:14;101061.16;;;8.23;100.00
51687;BME280;37774;52.192;4.584;2023-04-28T06:43:01;101008.31;;;7.85;100.00
51687;BME280;37774;52.192;4.584;2023-04-28T06:45:48;100894.97;;;7.25;100.00
51687;BME280;37774;52.192;4.584;2023-04-28T06:48:34;101089.84;;;8.54;100.00
51687;BME280;37774;52.192;4.584;2023-04-28T06:51:20;101000.69;;;8.11;100.00
51687;BME280;37774;52.192;4.584;2023-04-28T06:54:05;100701.53;;;6.46;100.00
51687;BME280;37774;52.192;4.584;2023-04-28T06:57:22;100819.13;;;7.18;100.00
51687;BME280;37774;52.192;4.584;2023-04-28T07:00:27;101076.09;;;8.73;100.00
51687;BME280;37774;52.192;4.584;2023-04-28T07:03:15;100636.59;;;5.92;100.00
51687;BME280;37774;52.192;4.584;2023-04-28T07:06:17;101080.41;;;8.68;100.00
51687;BME280;37774;52.192;4.584;2023-04-28T07:09:03;100898.66;;;7.66;100.00
51687;BME280;37774;52.192;4.584;2023-04-28T07:11:49;101113.28;;;8.85;100.00
51687;BME280;37774;52.192;4.584;2023-04-28T07:14:36;100622.75;;;5.85;100.00
51687;BME280;37774;52.192;4.584;2023-04-28T07:17:22;100794.97;;;7.16;100.00
51687;BME280;37774;52.192;4.584;2023-04-28T07:20:10;100865.00;;;7.56;100.00
51687;BME280;37774;52.192;4.584;2023-04-28T07:22:55;100607.50;;;6.08;100.00
51687;BME280;37774;52.192;4.584;2023-04-28T07:25:41;100900.47;;;7.85;100.00
51687;BME280;37774;52.192;4.584;2023-04-28T07:28:27;101040.72;;;8.79;100.00
51687;BME280;37774;52.192;4.584;2023-04-28T07:31:14;101051.94;;;8.84;100.00
51687;BME280;37774;52.192;4.584;2023-04-28T07:33:59;100647.47;;;6.72;100.00
51687;BME280;37774;52.192;4.584;2023-04-28T07:36:45;100932.72;;;8.68;100.00
51687;BME280;37774;52.192;4.584;2023-04-28T07:39:31;100845.34;;;8.00;100.00
51687;BME280;37774;52.192;4.584;2023-04-28T07:42:16;101026.97;;;9.09;100.00
51687;BME280;37774;52.192;4.584;2023-04-28T07:45:04;100920.63;;;8.58;100.00
51687;BME280;37774;52.192;4.584;2023-04-28T07:47:55;100638.91;;;6.86;100.00
51687;BME280;37774;52.192;4.584;2023-04-28T07:50:41;100627.63;;;6.68;100.00
51687;BME280;37774;52.192;4.584;2023-04-28T07:53:26;100821.22;;;8.04;100.00
51687;BME280;37774;52.192;4.584;2023-04-28T07:56:12;100975.94;;;8.80;100.00
51687;BME280;37774;52.192;4.584;2023-04-28T07:59:00;100646.84;;;7.31;100.00
51687;BME280;37774;52.192;4.584;2023-04-28T08:01:46;100869.69;;;8.60;100.00
51687;BME280;37774;52.192;4.584;2023-04-28T08:04:33;100548.47;;;6.69;100.00
51687;BME280;37774;52.192;4.584;2023-04-28T08:07:20;100657.22;;;7.45;100.00
51687;BME280;37774;52.192;4.584;2023-04-28T08:10:11;100891.28;;;9.10;100.00
51687;BME280;37774;52.192;4.584;2023-04-28T08:12:57;100600.25;;;7.12;100.00
51687;BME280;37774;52.192;4.584;2023-04-28T08:15:42;100827.38;;;8.73;100.00
51687;BME280;37774;52.192;4.584;2023-04-28T08:18:28;100885.22;;;9.34;100.00
51687;BME280;37774;52.192;4.584;2023-04-28T08:21:18;100413.31;;;6.57;100.00
51687;BME280;37774;52.192;4.584;2023-04-28T08:24:04;100678.00;;;8.38;100.00
51687;BME280;37774;52.192;4.584;2023-04-28T08:26:54;100744.44;;;8.84;100.00
51687;BME280;37774;52.192;4.584;2023-04-28T08:29:39;100645.19;;;8.34;100.00
51687;BME280;37774;52.192;4.584;2023-04-28T08:32:25;100782.31;;;9.35;100.00
51687;BME280;37774;52.192;4.584;2023-04-28T08:35:10;100488.25;;;7.80;100.00
51687;BME280;37774;52.192;4.584;2023-04-28T08:37:59;100631.31;;;8.72;100.00
51687;BME280;37774;52.192;4.584;2023-04-28T08:40:51;100356.50;;;7.10;100.00
51687;BME280;37774;52.192;4.584;2023-04-28T08:43:37;100431.41;;;7.63;100.00
51687;BME280;37774;52.192;4.584;2023-04-28T08:46:26;100754.41;;;9.88;100.00
51687;BME280;37774;52.192;4.584;2023-04-28T08:49:13;100676.59;;;9.79;100.00
51687;BME280;37774;52.192;4.584;2023-04-28T08:52:00;100677.34;;;9.97;100.00
51687;BME280;37774;52.192;4.584;2023-04-28T08:54:48;100662.78;;;9.77;100.00
51687;BME280;37774;52.192;4.584;2023-04-28T08:57:37;100636.72;;;9.89;100.00
51687;BME280;37774;52.192;4.584;2023-04-28T09:00:23;100632.41;;;9.90;100.00
51687;BME280;37774;52.192;4.584;2023-04-28T09:03:09;100686.81;;;10.04;100.00
51687;BME280;37774;52.192;4.584;2023-04-28T09:05:55;100631.56;;;9.88;100.00
51687;BME280;37774;52.192;4.584;2023-04-28T09:08:40;100728.16;;;10.32;100.00
51687;BME280;37774;52.192;4.584;2023-04-28T09:11:27;100717.75;;;10.35;100.00
51687;BME280;37774;52.192;4.584;2023-04-28T09:14:13;100739.38;;;10.40;100.00
51687;BME280;37774;52.192;4.584;2023-04-28T09:17:09;100755.66;;;10.61;100.00
51687;BME280;37774;52.192;4.584;2023-04-28T09:19:56;100654.88;;;9.92;100.00
51687;BME280;37774;52.192;4.584;2023-04-28T09:22:41;100811.78;;;10.82;100.00
51687;BME280;37774;52.192;4.584;2023-04-28T09:25:29;100481.00;;;8.82;100.00
51687;BME280;37774;52.192;4.584;2023-04-28T09:28:22;100712.66;;;10.22;100.00
51687;BME280;37774;52.192;4.584;2023-04-28T09:31:35;100687.94;;;9.67;100.00
51687;BME280;37774;52.192;4.584;2023-04-28T09:34:23;100648.97;;;9.76;100.00
51687;BME280;37774;52.192;4.584;2023-04-28T09:37:24;100523.28;;;8.95;100.00
51687;BME280;37774;52.192;4.584;2023-04-28T09:44:20;100625.75;;;9.52;100.00
51687;BME280;37774;52.192;4.584;2023-04-28T09:51:36;100963.81;;;11.44;100.00
51687;BME280;37774;52.192;4.584;2023-04-28T09:55:00;100758.72;;;9.92;100.00
51687;BME280;37774;52.192;4.584;2023-04-28T10:01:32;100740.28;;;10.33;100.00
51687;BME280;37774;52.192;4.584;2023-04-28T10:15:01;100642.91;;;9.77;100.00
51687;BME280;37774;52.192;4.584;2023-04-28T10:17:54;100990.13;;;12.05;100.00
51687;BME280;37774;52.192;4.584;2023-04-28T10:20:47;100735.75;;;10.55;100.00
51687;BME280;37774;52.192;4.584;2023-04-28T10:23:55;100810.91;;;10.81;100.00
51687;BME280;37774;52.192;4.584;2023-04-28T10:27:03;100593.81;;;9.48;100.00
51687;BME280;37774;52.192;4.584;2023-04-28T10:30:11;100852.19;;;11.17;100.00
51687;BME280;37774;52.192;4.584;2023-04-28T10:33:25;100822.03;;;10.96;100.00
51687;BME280;37774;52.192;4.584;2023-04-28T10:36:46;100994.47;;;11.99;100.00
51687;BME280;37774;52.192;4.584;2023-04-28T10:39:32;100810.00;;;10.87;100.00
51687;BME280;37774;52.192;4.584;2023-04-28T10:42:52;100984.03;;;12.06;100.00
51687;BME280;37774;52.192;4.584;2023-04-28T10:46:01;100978.84;;;12.03;100.00
51687;BME280;37774;52.192;4.584;2023-04-28T10:48:55;100809.06;;;10.94;100.00
51687;BME280;37774;52.192;4.584;2023-04-28T10:51:42;100651.34;;;10.00;100.00
51687;BME280;37774;52.192;4.584;2023-04-28T10:54:30;100725.56;;;10.32;100.00
51687;BME280;37774;52.192;4.584;2023-04-28T10:57:21;100782.22;;;10.92;100.00
51687;BME280;37774;52.192;4.584;2023-04-28T11:00:26;100782.06;;;11.08;100.00
51687;BME280;37774;52.192;4.584;2023-04-28T11:03:38;100901.69;;;11.94;100.00
51687;BME280;37774;52.192;4.584;2023-04-28T11:06:29;100680.69;;;11.05;100.00
51687;BME280;37774;52.192;4.584;2023-04-28T11:16:03;100786.47;;;11.76;100.00
51687;BME280;37774;52.192;4.584;2023-04-28T11:18:57;100758.72;;;11.74;100.00
51687;BME280;37774;52.192;4.584;2023-04-28T11:21:49;100740.28;;;11.89;100.00
51687;BME280;37774;52.192;4.584;2023-04-28T11:24:36;100715.03;;;11.94;100.00
51687;BME280;37774;52.192;4.584;2023-04-28T11:27:25;100645.31;;;11.55;100.00
51687;BME280;37774;52.192;4.584;2023-04-28T11:30:20;100418.22;;;10.94;100.00
51687;BME280;37774;52.192;4.584;2023-04-28T11:33:06;100580.34;;;11.49;100.00
51687;BME280;37774;52.192;4.584;2023-04-28T11:35:52;100469.06;;;11.14;100.00
51687;BME280;37774;52.192;4.584;2023-04-28T11:38:45;100515.34;;;11.46;100.00
51687;BME280;37774;52.192;4.584;2023-04-28T11:41:32;100406.59;;;11.17;100.00
51687;BME280;37774;52.192;4.584;2023-04-28T11:44:20;100353.66;;;11.21;100.00
51687;BME280;37774;52.192;4.584;2023-04-28T11:47:06;100288.75;;;11.15;100.00
51687;BME280;37774;52.192;4.584;2023-04-28T11:49:51;100374.50;;;12.10;100.00
51687;BME280;37774;52.192;4.584;2023-04-28T11:52:47;100215.06;;;11.13;100.00
51687;BME280;37774;52.192;4.584;2023-04-28T11:55:34;100079.22;;;11.01;100.00
51687;BME280;37774;52.192;4.584;2023-04-28T11:58:20;100173.63;;;11.87;100.00
51687;BME280;37774;52.192;4.584;2023-04-28T12:01:07;100212.75;;;12.21;100.00
51687;BME280;37774;52.192;4.584;2023-04-28T12:03:53;100131.63;;;12.02;100.00
51687;BME280;37774;52.192;4.584;2023-04-28T12:06:39;100117.03;;;11.93;100.00
51687;BME280;37774;52.192;4.584;2023-04-28T12:09:25;100077.06;;;11.96;100.00
51687;BME280;37774;52.192;4.584;2023-04-28T12:12:14;100086.53;;;12.33;100.00
51687;BME280;37774;52.192;4.584;2023-04-28T12:15:02;99866.53;;;11.17;100.00
51687;BME280;37774;52.192;4.584;2023-04-28T12:17:48;99922.19;;;11.78;100.00
51687;BME280;37774;52.192;4.584;2023-04-28T12:20:35;99670.28;;;10.31;100.00
51687;BME280;37774;52.192;4.584;2023-04-28T12:23:29;99902.81;;;11.88;100.00
51687;BME280;37774;52.192;4.584;2023-04-28T12:26:23;99849.03;;;11.87;100.00
51687;BME280;37774;52.192;4.584;2023-04-28T12:29:34;99941.44;;;12.35;100.00
51687;BME280;37774;52.192;4.584;2023-04-28T12:32:36;99937.84;;;12.09;100.00
51687;BME280;37774;52.192;4.584;2023-04-28T12:35:22;99934.38;;;12.09;100.00
51687;BME280;37774;52.192;4.584;2023-04-28T12:38:10;99932.91;;;12.00;100.00
51687;BME280;37774;52.192;4.584;2023-04-28T12:40:56;99934.53;;;12.04;100.00
51687;BME280;37774;52.192;4.584;2023-04-28T12:43:42;99932.28;;;12.22;100.00
51687;BME280;37774;52.192;4.584;2023-04-28T12:46:29;99924.00;;;12.39;100.00
51687;BME280;37774;52.192;4.584;2023-04-28T12:49:14;99915.72;;;12.24;100.00
51687;BME280;37774;52.192;4.584;2023-04-28T12:52:00;99845.59;;;11.87;100.00
51687;BME280;37774;52.192;4.584;2023-04-28T12:54:46;99793.47;;;11.58;100.00
51687;BME280;37774;52.192;4.584;2023-04-28T12:57:32;99922.75;;;12.22;100.00
51687;BME280;37774;52.192;4.584;2023-04-28T13:00:19;99953.03;;;12.25;100.00
51687;BME280;37774;52.192;4.584;2023-04-28T13:03:08;99884.66;;;11.87;100.00
51687;BME280;37774;52.192;4.584;2023-04-28T13:05:53;99916.81;;;11.84;100.00
51687;BME280;37774;52.192;4.584;2023-04-28T13:08:38;99973.13;;;12.21;100.00
51687;BME280;37774;52.192;4.584;2023-04-28T13:11:24;99989.72;;;12.17;100.00
51687;BME280;37774;52.192;4.584;2023-04-28T13:14:11;100057.94;;;12.32;100.00
51687;BME280;37774;52.192;4.584;2023-04-28T13:16:56;100108.97;;;12.39;100.00
51687;BME280;37774;52.192;4.584;2023-04-28T13:19:43;100074.63;;;11.88;100.00
51687;BME280;37774;52.192;4.584;2023-04-28T13:22:28;100151.41;;;12.44;100.00
51687;BME280;37774;52.192;4.584;2023-04-28T13:25:14;100141.66;;;12.16;100.00
51687;BME280;37774;52.192;4.584;2023-04-28T13:28:00;100278.81;;;12.55;100.00
51687;BME280;37774;52.192;4.584;2023-04-28T13:30:45;100246.94;;;12.07;100.00
51687;BME280;37774;52.192;4.584;2023-04-28T13:33:31;100322.22;;;12.18;100.00
51687;BME280;37774;52.192;4.584;2023-04-28T13:36:18;100299.56;;;11.81;100.00
51687;BME280;37774;52.192;4.584;2023-04-28T13:39:03;100407.47;;;12.52;100.00
51687;BME280;37774;52.192;4.584;2023-04-28T13:41:49;100428.22;;;12.55;100.00
51687;BME280;37774;52.192;4.584;2023-04-28T13:44:35;100453.97;;;12.30;100.00
51687;BME280;37774;52.192;4.584;2023-04-28T13:47:20;100410.31;;;11.97;100.00
51687;BME280;37774;52.192;4.584;2023-04-28T13:50:06;100479.34;;;12.20;100.00
51687;BME280;37774;52.192;4.584;2023-04-28T13:52:53;100526.31;;;12.60;100.00
51687;BME280;37774;52.192;4.584;2023-04-28T13:55:39;100533.75;;;12.36;100.00
51687;BME280;37774;52.192;4.584;2023-04-28T13:58:25;100580.34;;;12.51;100.00
51687;BME280;37774;52.192;4.584;2023-04-28T14:01:10;100532.66;;;12.01;100.00
51687;BME280;37774;52.192;4.584;2023-04-28T14:03:56;100515.84;;;11.68;100.00
51687;BME280;37774;52.192;4.584;2023-04-28T14:06:41;100645.75;;;12.39;100.00
51687;BME280;37774;52.192;4.584;2023-04-28T14:09:28;100671.97;;;12.30;100.00
51687;BME280;37774;52.192;4.584;2023-04-28T14:12:15;100606.81;;;11.78;100.00
51687;BME280;37774;52.192;4.584;2023-04-28T14:15:00;100668.66;;;12.21;100.00
51687;BME280;37774;52.192;4.584;2023-04-28T14:17:47;100658.13;;;12.27;100.00
51687;BME280;37774;52.192;4.584;2023-04-28T14:20:32;100657.16;;;12.32;100.00
51687;BME280;37774;52.192;4.584;2023-04-28T14:23:18;100617.31;;;12.25;100.00
51687;BME280;37774;52.192;4.584;2023-04-28T14:26:05;100654.28;;;12.47;100.00
51687;BME280;37774;52.192;4.584;2023-04-28T14:28:50;100659.88;;;12.25;100.00
51687;BME280;37774;52.192;4.584;2023-04-28T14:31:35;100689.44;;;12.24;100.00
51687;BME280;37774;52.192;4.584;2023-04-28T14:34:21;100638.63;;;11.97;100.00
51687;BME280;37774;52.192;4.584;2023-04-28T14:37:07;100686.94;;;12.17;100.00
51687;BME280;37774;52.192;4.584;2023-04-28T14:39:52;100626.16;;;11.60;100.00
51687;BME280;37774;52.192;4.584;2023-04-28T14:42:39;100693.94;;;12.13;100.00
51687;BME280;37774;52.192;4.584;2023-04-28T14:45:25;100665.41;;;12.05;100.00
51687;BME280;37774;52.192;4.584;2023-04-28T14:48:10;100706.31;;;12.00;100.00
51687;BME280;37774;52.192;4.584;2023-04-28T14:50:57;100674.53;;;11.75;100.00
51687;BME280;37774;52.192;4.584;2023-04-28T14:53:42;100708.22;;;11.86;100.00
51687;BME280;37774;52.192;4.584;2023-04-28T14:56:28;100764.19;;;12.18;100.00
51687;BME280;37774;52.192;4.584;2023-04-28T14:59:15;100739.25;;;12.03;100.00
51687;BME280;37774;52.192;4.584;2023-04-28T15:02:01;100781.59;;;12.14;100.00
51687;BME280;37774;52.192;4.584;2023-04-28T15:04:47;100762.50;;;12.15;100.00